createdAt,value
2023-01-29T00:02:19.981Z,101604.03
2023-01-29T00:04:47.879Z,101567.13
2023-01-29T00:07:15.620Z,101559.06
2023-01-29T00:09:43.050Z,101575.56
2023-01-29T00:12:10.802Z,101620.88
2023-01-29T00:14:38.682Z,101555.47
2023-01-29T00:17:06.491Z,101546.22
2023-01-29T00:19:33.973Z,101632.09
2023-01-29T00:22:01.464Z,101604.41
2023-01-29T00:24:28.992Z,101581.94
2023-01-29T00:26:56.641Z,101637.72
2023-01-29T00:29:24.272Z,101639.72
2023-01-29T00:31:51.730Z,101599.97
2023-01-29T00:34:19.292Z,101631.69
2023-01-29T00:36:46.722Z,101569.88
2023-01-29T00:39:14.461Z,101643.34
2023-01-29T00:42:00.321Z,101642.16
2023-01-29T00:44:46.543Z,101643.75
2023-01-29T00:47:33.936Z,101652.59
2023-01-29T00:50:04.144Z,101607.25
2023-01-29T00:52:31.757Z,101655.41
2023-01-29T00:55:00.903Z,101651.38
2023-01-29T00:57:30.555Z,101654.59
2023-01-29T00:59:58.065Z,101620.84
2023-01-29T01:02:44.085Z,101659.41
2023-01-29T01:05:18.396Z,101658.63
2023-01-29T01:07:56.564Z,101661.41
2023-01-29T01:10:27.796Z,101668.25
2023-01-29T01:12:56.533Z,101669.84
2023-01-29T01:15:29.541Z,101675.44
2023-01-29T01:18:00.365Z,101598.38
2023-01-29T01:20:30.108Z,101633.69
2023-01-29T01:22:57.955Z,101679.44
2023-01-29T01:25:27.086Z,101665.00
2023-01-29T01:27:57.091Z,101680.22
2023-01-29T01:30:25.761Z,101660.19
2023-01-29T01:32:53.404Z,101635.69
2023-01-29T01:35:21.070Z,101675.41
2023-01-29T01:37:49.334Z,101652.13
2023-01-29T01:40:19.322Z,101653.72
2023-01-29T01:42:59.131Z,101584.28
2023-01-29T01:45:34.884Z,101673.78
2023-01-29T01:48:22.153Z,101635.25
2023-01-29T01:51:04.495Z,101636.88
2023-01-29T01:53:38.972Z,101644.06
2023-01-29T01:59:03.080Z,101714.69
2023-01-29T02:01:30.767Z,101658.13
2023-01-29T02:04:34.346Z,101622.81
2023-01-29T02:07:23.604Z,101607.16
2023-01-29T02:10:00.847Z,101640.53
2023-01-29T02:12:31.344Z,101607.63
2023-01-29T02:14:59.842Z,101677.44
2023-01-29T02:17:27.341Z,101705.91
2023-01-29T02:20:17.053Z,101685.47
2023-01-29T02:23:23.555Z,101681.06
2023-01-29T02:26:19.273Z,101683.47
2023-01-29T02:29:25.679Z,101681.44
2023-01-29T02:32:27.449Z,101686.22
2023-01-29T02:35:30.894Z,101674.19
2023-01-29T02:38:04.341Z,101684.19
2023-01-29T02:40:38.944Z,101681.75
2023-01-29T02:43:27.741Z,101689.00
2023-01-29T02:46:20.649Z,101628.75
2023-01-29T02:48:58.320Z,101597.50
2023-01-29T02:51:34.636Z,101684.25
2023-01-29T02:54:14.159Z,101688.28
2023-01-29T02:56:51.819Z,101636.88
2023-01-29T02:59:25.776Z,101682.66
2023-01-29T03:02:01.494Z,101688.63
2023-01-29T03:04:34.086Z,101603.16
2023-01-29T03:07:10.764Z,101645.69
2023-01-29T03:09:45.308Z,101613.22
2023-01-29T03:12:37.100Z,101685.84
2023-01-29T03:15:25.515Z,101681.06
2023-01-29T03:18:19.190Z,101646.16
2023-01-29T03:20:52.154Z,101664.59
2023-01-29T03:23:47.685Z,101667.44
2023-01-29T03:26:37.363Z,101684.31
2023-01-29T03:29:25.065Z,101644.97
2023-01-29T03:32:04.663Z,101685.09
2023-01-29T03:34:42.163Z,101687.50
2023-01-29T03:37:30.097Z,101692.28
2023-01-29T03:39:57.579Z,101688.69
2023-01-29T03:42:43.833Z,101689.09
2023-01-29T03:45:16.457Z,101690.72
2023-01-29T03:48:20.315Z,101679.88
2023-01-29T03:50:54.699Z,101685.50
2023-01-29T03:53:44.216Z,101691.09
2023-01-29T03:56:34.712Z,101690.31
2023-01-29T03:59:28.950Z,101675.47
2023-01-29T04:02:13.227Z,101671.41
2023-01-29T04:04:44.158Z,101660.97
2023-01-29T04:07:24.625Z,101666.97
2023-01-29T04:10:16.687Z,101656.91
2023-01-29T04:12:52.787Z,101688.59
2023-01-29T04:15:22.872Z,101678.09
2023-01-29T04:17:53.017Z,101647.25
2023-01-29T04:20:27.437Z,101668.09
2023-01-29T04:22:55.860Z,101712.25
2023-01-29T04:25:29.122Z,101623.81
2023-01-29T04:28:16.548Z,101711.84
2023-01-29T04:30:54.215Z,101660.38
2023-01-29T04:33:58.200Z,101721.50
2023-01-29T04:36:48.867Z,101710.69
2023-01-29T04:39:26.511Z,101709.84
2023-01-29T04:42:03.104Z,101724.69
2023-01-29T04:44:41.914Z,101708.94
2023-01-29T04:47:27.790Z,101724.31
2023-01-29T04:50:18.613Z,101706.66
2023-01-29T04:53:20.575Z,101747.19
2023-01-29T04:56:02.249Z,101700.63
2023-01-29T04:58:39.505Z,101684.19
2023-01-29T05:01:09.371Z,101732.00
2023-01-29T05:03:39.539Z,101745.22
2023-01-29T05:06:08.302Z,101733.19
2023-01-29T05:08:39.503Z,101725.13
2023-01-29T05:11:27.777Z,101746.38
2023-01-29T05:13:56.590Z,101734.75
2023-01-29T05:16:42.297Z,101737.44
2023-01-29T05:19:12.434Z,101745.94
2023-01-29T05:21:42.400Z,101710.97
2023-01-29T05:24:22.142Z,101706.91
2023-01-29T05:27:10.473Z,101711.34
2023-01-29T05:29:39.364Z,101761.13
2023-01-29T05:32:06.888Z,101672.78
2023-01-29T05:34:34.629Z,101732.72
2023-01-29T05:37:02.035Z,101727.50
2023-01-29T05:39:29.424Z,101726.66
2023-01-29T05:41:56.886Z,101753.13
2023-01-29T05:44:24.328Z,101737.03
2023-01-29T05:46:52.330Z,101727.00
2023-01-29T05:49:20.827Z,101744.25
2023-01-29T05:51:48.255Z,101713.31
2023-01-29T05:54:15.838Z,101689.09
2023-01-29T05:56:43.266Z,101760.69
2023-01-29T05:59:10.777Z,101766.31
2023-01-29T06:01:38.434Z,101771.06
2023-01-29T06:04:06.067Z,101724.38
2023-01-29T06:06:33.471Z,101771.38
2023-01-29T06:09:00.870Z,101753.75
2023-01-29T06:11:28.447Z,101736.84
2023-01-29T06:13:55.904Z,101725.19
2023-01-29T06:16:23.403Z,101722.75
2023-01-29T06:18:50.933Z,101713.91
2023-01-29T06:21:20.150Z,101724.75
2023-01-29T06:23:53.955Z,101788.78
2023-01-29T06:26:21.446Z,101755.47
2023-01-29T06:28:50.731Z,101757.88
2023-01-29T06:31:38.303Z,101717.59
2023-01-29T06:34:12.772Z,101762.72
2023-01-29T06:36:41.921Z,101820.56
2023-01-29T06:39:09.372Z,101785.63
2023-01-29T06:41:36.834Z,101774.00
2023-01-29T06:44:04.625Z,101779.47
2023-01-29T06:46:32.615Z,101793.06
2023-01-29T06:49:02.688Z,101778.66
2023-01-29T06:51:30.291Z,101781.94
2023-01-29T06:53:58.183Z,101818.13
2023-01-29T06:56:25.746Z,101816.16
2023-01-29T06:58:52.903Z,101833.50
2023-01-29T07:01:34.638Z,101833.41
2023-01-29T07:04:03.462Z,101827.03
2023-01-29T07:06:30.864Z,101789.94
2023-01-29T07:08:58.326Z,101839.06
2023-01-29T07:11:25.921Z,101841.47
2023-01-29T07:13:53.617Z,101795.69
2023-01-29T07:16:21.094Z,101817.34
2023-01-29T07:18:48.527Z,101802.53
2023-01-29T07:21:15.909Z,101802.94
2023-01-29T07:23:43.161Z,101818.59
2023-01-29T07:26:11.512Z,101805.41
2023-01-29T07:28:39.894Z,101844.41
2023-01-29T07:31:08.664Z,101839.59
2023-01-29T07:33:36.002Z,101825.97
2023-01-29T07:36:08.280Z,101842.44
2023-01-29T07:38:35.849Z,101847.66
2023-01-29T07:41:03.459Z,101833.19
2023-01-29T07:43:31.074Z,101807.06
2023-01-29T07:46:02.805Z,101811.91
2023-01-29T07:48:30.831Z,101853.69
2023-01-29T07:50:59.195Z,101812.69
2023-01-29T07:53:28.410Z,101802.22
2023-01-29T07:55:56.204Z,101815.09
2023-01-29T07:58:23.672Z,101855.31
2023-01-29T08:00:50.991Z,101864.16
2023-01-29T08:03:22.560Z,101860.94
2023-01-29T08:05:50.314Z,101853.28
2023-01-29T08:08:17.824Z,101859.72
2023-01-29T08:10:45.297Z,101860.09
2023-01-29T08:13:12.786Z,101833.59
2023-01-29T08:15:43.228Z,101875.41
2023-01-29T08:18:10.878Z,101836.84
2023-01-29T08:20:38.505Z,101828.41
2023-01-29T08:23:09.135Z,101825.22
2023-01-29T08:25:36.871Z,101851.31
2023-01-29T08:28:04.687Z,101879.44
2023-01-29T08:30:34.218Z,101878.63
2023-01-29T08:33:03.140Z,101796.31
2023-01-29T08:35:31.866Z,101870.19
2023-01-29T08:38:01.363Z,101836.84
2023-01-29T08:40:43.805Z,101866.16
2023-01-29T08:43:12.547Z,101835.25
2023-01-29T08:45:44.755Z,101792.69
2023-01-29T08:48:12.861Z,101799.09
2023-01-29T08:50:40.446Z,101817.56
2023-01-29T08:53:09.988Z,101800.69
2023-01-29T08:55:46.168Z,101839.63
2023-01-29T09:01:45.285Z,101875.41
2023-01-29T09:04:16.645Z,101888.25
2023-01-29T09:06:44.292Z,101799.88
2023-01-29T09:09:30.885Z,101820.75
2023-01-29T09:12:01.749Z,101889.00
2023-01-29T09:14:29.398Z,101845.19
2023-01-29T09:16:58.864Z,101894.66
2023-01-29T09:19:26.056Z,101894.66
2023-01-29T09:21:53.205Z,101871.38
2023-01-29T09:24:20.469Z,101887.41
2023-01-29T09:26:47.600Z,101875.75
2023-01-29T09:29:15.188Z,101858.94
2023-01-29T09:31:42.485Z,101854.50
2023-01-29T09:34:09.822Z,101877.00
2023-01-29T09:36:37.219Z,101844.06
2023-01-29T09:39:04.798Z,101799.88
2023-01-29T09:41:41.506Z,101867.72
2023-01-29T09:44:38.535Z,101856.84
2023-01-29T09:47:13.462Z,101859.25
2023-01-29T09:49:46.363Z,101855.19
2023-01-29T09:52:19.463Z,101852.38
2023-01-29T09:55:24.926Z,101852.38
2023-01-29T09:57:57.817Z,101852.75
2023-01-29T10:00:33.321Z,101855.19
2023-01-29T10:03:28.455Z,101852.78
2023-01-29T10:06:32.711Z,101845.88
2023-01-29T10:09:27.713Z,101846.31
2023-01-29T10:12:12.959Z,101843.41
2023-01-29T10:15:06.189Z,101824.44
2023-01-29T10:18:10.994Z,101817.19
2023-01-29T10:21:16.776Z,101812.25
2023-01-29T10:23:50.688Z,101806.63
2023-01-29T10:26:21.286Z,101792.47
2023-01-29T10:28:51.189Z,101802.44
2023-01-29T10:31:36.662Z,101807.38
2023-01-29T10:34:11.704Z,101794.03
2023-01-29T10:36:49.147Z,101794.94
2023-01-29T10:39:21.940Z,101792.72
2023-01-29T10:41:49.675Z,101793.63
2023-01-29T10:44:27.043Z,101782.00
2023-01-29T10:47:16.321Z,101745.41
2023-01-29T10:50:13.055Z,101788.81
2023-01-29T10:53:09.737Z,101726.25
2023-01-29T10:56:01.282Z,101793.38
2023-01-29T10:58:44.969Z,101766.09
2023-01-29T11:01:13.610Z,101776.09
2023-01-29T11:03:40.857Z,101780.94
2023-01-29T11:06:08.300Z,101770.50
2023-01-29T11:08:59.092Z,101769.72
2023-01-29T11:11:38.321Z,101740.03
2023-01-29T11:14:10.733Z,101735.25
2023-01-29T11:16:54.107Z,101760.16
2023-01-29T11:19:40.406Z,101765.75
2023-01-29T11:22:13.724Z,101684.03
2023-01-29T11:24:40.867Z,101751.66
2023-01-29T11:27:35.993Z,101750.50
2023-01-29T11:30:04.274Z,101744.88
2023-01-29T11:32:35.019Z,101761.75
2023-01-29T11:35:10.237Z,101697.16
2023-01-29T11:37:44.424Z,101727.91
2023-01-29T11:40:22.412Z,101739.94
2023-01-29T11:42:53.357Z,101687.44
2023-01-29T11:45:20.732Z,101739.13
2023-01-29T11:47:55.155Z,101667.84
2023-01-29T11:50:34.137Z,101748.75
2023-01-29T11:53:02.493Z,101744.00
2023-01-29T11:55:49.458Z,101707.09
2023-01-29T11:58:26.131Z,101708.34
2023-01-29T12:01:08.476Z,101689.59
2023-01-29T12:03:47.856Z,101678.31
2023-01-29T12:06:35.401Z,101739.16
2023-01-29T12:09:17.015Z,101729.94
2023-01-29T12:11:44.462Z,101705.94
2023-01-29T12:14:41.225Z,101738.38
2023-01-29T12:17:24.141Z,101695.94
2023-01-29T12:20:01.266Z,101494.84
2023-01-29T12:22:41.018Z,101731.97
2023-01-29T12:25:24.836Z,101680.72
2023-01-29T12:28:13.711Z,101686.31
2023-01-29T12:30:52.113Z,101688.38
2023-01-29T12:33:50.243Z,101740.91
2023-01-29T12:36:59.082Z,101722.34
2023-01-29T12:39:26.961Z,101729.59
2023-01-29T12:41:58.488Z,101739.25
2023-01-29T12:44:43.197Z,101639.94
2023-01-29T12:47:18.184Z,101699.72
2023-01-29T12:50:24.442Z,101746.53
2023-01-29T12:52:57.427Z,101746.94
2023-01-29T12:55:38.476Z,101749.75
2023-01-29T13:01:41.118Z,101740.03
2023-01-29T13:04:40.501Z,101709.94
2023-01-29T13:07:19.081Z,101707.88
2023-01-29T13:09:51.606Z,101675.03
2023-01-29T13:12:22.896Z,101735.41
2023-01-29T13:15:04.085Z,101703.31
2023-01-29T13:17:40.469Z,101720.50
2023-01-29T13:20:24.375Z,101741.31
2023-01-29T13:22:54.878Z,101710.13
2023-01-29T13:25:22.781Z,101708.06
2023-01-29T13:27:50.739Z,101686.78
2023-01-29T13:30:33.432Z,101687.31
2023-01-29T13:33:11.340Z,101746.22
2023-01-29T13:35:45.244Z,101757.59
2023-01-29T13:38:47.813Z,101747.94
2023-01-29T13:41:15.370Z,101736.75
2023-01-29T13:43:49.540Z,101747.22
2023-01-29T13:46:21.578Z,101739.69
2023-01-29T13:48:51.111Z,101748.94
2023-01-29T13:51:23.210Z,101758.47
2023-01-29T13:54:18.063Z,101763.28
2023-01-29T13:57:05.375Z,101758.41
2023-01-29T13:59:53.689Z,101764.53
2023-01-29T14:02:23.876Z,101771.00
2023-01-29T14:04:51.246Z,101767.84
2023-01-29T14:07:46.633Z,101775.94
2023-01-29T14:10:19.903Z,101777.94
2023-01-29T14:12:48.541Z,101772.75
2023-01-29T14:15:22.403Z,101772.31
2023-01-29T14:18:03.004Z,101771.56
2023-01-29T14:20:47.267Z,101774.69
2023-01-29T14:23:47.018Z,101783.66
2023-01-29T14:26:26.347Z,101773.19
2023-01-29T14:29:01.919Z,101776.00
2023-01-29T14:31:52.247Z,101766.81
2023-01-29T14:34:31.167Z,101788.50
2023-01-29T14:37:23.799Z,101757.97
2023-01-29T14:40:19.927Z,101786.56
2023-01-29T14:43:04.457Z,101788.56
2023-01-29T14:45:41.921Z,101790.59
2023-01-29T14:48:12.135Z,101781.38
2023-01-29T14:50:43.673Z,101774.94
2023-01-29T14:53:19.993Z,101789.78
2023-01-29T14:56:04.117Z,101792.66
2023-01-29T14:58:56.234Z,101792.63
2023-01-29T15:01:37.761Z,101786.63
2023-01-29T15:04:12.804Z,101791.06
2023-01-29T15:06:47.503Z,101801.50
2023-01-29T15:09:17.714Z,101801.50
2023-01-29T15:12:10.491Z,101800.69
2023-01-29T15:14:44.677Z,101793.06
2023-01-29T15:17:29.874Z,101791.47
2023-01-29T15:19:57.955Z,101794.28
2023-01-29T15:22:26.195Z,101807.13
2023-01-29T15:25:10.615Z,101809.50
2023-01-29T15:27:42.578Z,101788.19
2023-01-29T15:30:16.768Z,101800.25
2023-01-29T15:32:45.195Z,101820.72
2023-01-29T15:35:27.780Z,101817.50
2023-01-29T15:38:14.496Z,101820.69
2023-01-29T15:40:42.005Z,101823.88
2023-01-29T15:43:22.758Z,101817.47
2023-01-29T15:45:52.103Z,101827.47
2023-01-29T15:48:26.448Z,101804.09
2023-01-29T15:50:55.578Z,101835.03
2023-01-29T15:53:30.195Z,101852.63
2023-01-29T15:56:00.121Z,101841.75
2023-01-29T15:58:33.502Z,101850.16
2023-01-29T16:01:01.550Z,101839.28
2023-01-29T16:03:32.970Z,101839.75
2023-01-29T16:06:02.218Z,101844.13
2023-01-29T16:08:29.907Z,101843.78
2023-01-29T16:11:00.125Z,101846.09
2023-01-29T16:13:34.053Z,101851.63
2023-01-29T16:16:08.583Z,101853.22
2023-01-29T16:18:41.095Z,101861.19
2023-01-29T16:21:17.174Z,101857.19
2023-01-29T16:23:50.316Z,101850.22
2023-01-29T16:26:25.161Z,101850.72
2023-01-29T16:28:52.789Z,101840.22
2023-01-29T16:31:28.193Z,101847.44
2023-01-29T16:33:57.358Z,101828.19
2023-01-29T16:36:27.011Z,101847.44
2023-01-29T16:39:02.698Z,101849.06
2023-01-29T16:41:38.302Z,101810.44
2023-01-29T16:44:20.791Z,101850.63
2023-01-29T16:46:56.954Z,101840.97
2023-01-29T16:49:27.293Z,101851.38
2023-01-29T16:51:56.497Z,101855.31
2023-01-29T16:54:27.903Z,101824.78
2023-01-29T16:57:00.717Z,101818.34
2023-01-29T16:59:46.503Z,101840.84
2023-01-29T17:02:33.779Z,101843.66
2023-01-29T17:05:05.543Z,101830.78
2023-01-29T17:07:33.857Z,101864.94
2023-01-29T17:10:04.696Z,101867.25
2023-01-29T17:12:33.744Z,101859.22
2023-01-29T17:15:25.672Z,101834.19
2023-01-29T17:17:53.068Z,101866.47
2023-01-29T17:20:20.394Z,101866.50
2023-01-29T17:22:47.510Z,101849.19
2023-01-29T17:25:15.866Z,101863.19
2023-01-29T17:27:51.836Z,101844.28
2023-01-29T17:30:21.871Z,101869.56
2023-01-29T17:32:49.713Z,101857.47
2023-01-29T17:35:17.874Z,101866.34
2023-01-29T17:37:45.367Z,101861.47
2023-01-29T17:40:33.563Z,101855.44
2023-01-29T17:43:00.685Z,101862.34
2023-01-29T17:45:28.003Z,101859.44
2023-01-29T17:47:55.131Z,101853.06
2023-01-29T17:50:26.061Z,101877.56
2023-01-29T17:52:54.009Z,101874.41
2023-01-29T17:55:21.177Z,101859.91
2023-01-29T17:57:48.448Z,101862.34
2023-01-29T18:00:16.929Z,101884.06
2023-01-29T18:02:44.097Z,101889.69
2023-01-29T18:05:14.981Z,101882.50
2023-01-29T18:07:44.274Z,101876.16
2023-01-29T18:10:18.253Z,101875.34
2023-01-29T18:12:46.045Z,101860.50
2023-01-29T18:15:13.979Z,101867.75
2023-01-29T18:17:41.766Z,101869.81
2023-01-29T18:20:22.208Z,101861.41
2023-01-29T18:22:49.736Z,101867.84
2023-01-29T18:25:17.502Z,101868.25
2023-01-29T18:27:45.302Z,101867.53
2023-01-29T18:30:13.280Z,101865.06
2023-01-29T18:32:40.427Z,101880.34
2023-01-29T18:35:08.683Z,101882.31
2023-01-29T18:37:36.556Z,101883.53
2023-01-29T18:40:04.295Z,101883.50
2023-01-29T18:42:33.416Z,101876.31
2023-01-29T18:45:00.709Z,101882.69
2023-01-29T18:47:28.133Z,101884.28
2023-01-29T18:49:55.296Z,101885.91
2023-01-29T18:52:22.689Z,101874.69
2023-01-29T18:54:50.081Z,101895.16
2023-01-29T18:58:25.920Z,101899.63
2023-01-29T19:00:08.090Z,101898.81
2023-01-29T19:02:35.581Z,101905.25
2023-01-29T19:05:02.724Z,101905.25
2023-01-29T19:07:30.158Z,101910.44
2023-01-29T19:09:57.355Z,101900.78
2023-01-29T19:12:24.714Z,101894.03
2023-01-29T19:14:51.918Z,101898.06
2023-01-29T19:17:19.194Z,101900.78
2023-01-29T19:19:46.755Z,101909.22
2023-01-29T19:22:13.928Z,101898.06
2023-01-29T19:24:41.265Z,101896.44
2023-01-29T19:27:08.431Z,101879.94
2023-01-29T19:29:35.696Z,101898.00
2023-01-29T19:32:02.828Z,101895.63
2023-01-29T19:34:30.459Z,101863.47
2023-01-29T19:36:57.659Z,101875.56
2023-01-29T19:39:24.989Z,101890.06
2023-01-29T19:41:52.640Z,101890.84
2023-01-29T19:44:19.949Z,101891.97
2023-01-29T19:46:47.013Z,101885.13
2023-01-29T19:49:14.330Z,101887.06
2023-01-29T19:51:41.546Z,101855.72
2023-01-29T19:54:09.644Z,101888.63
2023-01-29T19:56:37.001Z,101874.59
2023-01-29T19:59:05.184Z,101890.63
2023-01-29T20:01:32.491Z,101893.84
2023-01-29T20:03:59.733Z,101881.00
2023-01-29T20:06:31.212Z,101889.47
2023-01-29T20:08:58.564Z,101887.94
2023-01-29T20:11:25.831Z,101890.38
2023-01-29T20:13:53.729Z,101883.56
2023-01-29T20:16:21.884Z,101894.78
2023-01-29T20:18:49.193Z,101830.41
2023-01-29T20:21:20.694Z,101881.13
2023-01-29T20:23:52.056Z,101882.75
2023-01-29T20:26:20.187Z,101895.94
2023-01-29T20:28:48.152Z,101887.50
2023-01-29T20:31:16.018Z,101882.25
2023-01-29T20:33:43.255Z,101895.97
2023-01-29T20:36:12.380Z,101906.78
2023-01-29T20:38:39.589Z,101897.13
2023-01-29T20:41:17.846Z,101887.72
2023-01-29T20:43:46.100Z,101913.94
2023-01-29T20:46:13.472Z,101921.13
2023-01-29T20:48:42.243Z,101918.72
2023-01-29T20:51:15.993Z,101925.91
2023-01-29T20:53:45.803Z,101901.78
2023-01-29T20:56:14.850Z,101922.72
2023-01-29T20:58:42.411Z,101916.25
2023-01-29T21:01:15.841Z,101924.34
2023-01-29T21:03:43.659Z,101927.91
2023-01-29T21:06:11.764Z,101919.53
2023-01-29T21:08:39.841Z,101906.25
2023-01-29T21:11:09.062Z,101929.94
2023-01-29T21:13:36.661Z,101926.72
2023-01-29T21:16:04.467Z,101934.72
2023-01-29T21:18:32.351Z,101927.44
2023-01-29T21:20:59.607Z,101926.63
2023-01-29T21:23:26.871Z,101939.47
2023-01-29T21:25:54.057Z,101938.69
2023-01-29T21:28:21.175Z,101921.03
2023-01-29T21:30:48.493Z,101922.28
2023-01-29T21:33:15.631Z,101904.13
2023-01-29T21:35:42.805Z,101922.63
2023-01-29T21:38:10.001Z,101920.19
2023-01-29T21:40:55.802Z,101878.41
2023-01-29T21:43:23.055Z,101920.38
2023-01-29T21:45:55.637Z,101922.72
2023-01-29T21:48:23.521Z,101926.72
2023-01-29T21:50:51.569Z,101929.94
2023-01-29T21:53:19.345Z,101925.16
2023-01-29T21:55:47.092Z,101924.75
2023-01-29T21:58:14.848Z,101900.25
2023-01-29T22:00:42.141Z,101905.09
2023-01-29T22:03:09.260Z,101909.91
2023-01-29T22:05:36.478Z,101903.47
2023-01-29T22:08:04.989Z,101903.03
2023-01-29T22:10:34.214Z,101905.88
2023-01-29T22:13:02.148Z,101903.06
2023-01-29T22:15:29.400Z,101907.84
2023-01-29T22:17:56.517Z,101903.03
2023-01-29T22:20:30.331Z,101880.50
2023-01-29T22:23:00.693Z,101890.19
2023-01-29T22:25:28.009Z,101902.66
2023-01-29T22:27:55.263Z,101898.28
2023-01-29T22:30:23.513Z,101886.25
2023-01-29T22:32:51.212Z,101894.69
2023-01-29T22:35:18.520Z,101860.06
2023-01-29T22:37:45.685Z,101865.38
2023-01-29T22:40:13.781Z,101878.22
2023-01-29T22:42:41.053Z,101875.78
2023-01-29T22:45:09.003Z,101876.59
2023-01-29T22:47:36.363Z,101863.28
2023-01-29T22:50:06.320Z,101881.00
2023-01-29T22:52:42.633Z,101880.63
2023-01-29T22:55:11.375Z,101879.00
2023-01-29T22:57:39.906Z,101889.03
2023-01-29T23:00:10.987Z,101881.88
2023-01-29T23:02:38.165Z,101869.31
2023-01-29T23:05:05.831Z,101882.63
2023-01-29T23:07:33.359Z,101870.53
2023-01-29T23:10:00.745Z,101847.91
2023-01-29T23:12:27.800Z,101869.75
2023-01-29T23:14:55.052Z,101840.84
2023-01-29T23:17:22.381Z,101851.66
2023-01-29T23:19:49.588Z,101847.38
2023-01-29T23:22:16.823Z,101841.75
2023-01-29T23:24:43.987Z,101855.44
2023-01-29T23:27:17.141Z,101862.66
2023-01-29T23:29:46.242Z,101852.19
2023-01-29T23:32:16.789Z,101851.78
2023-01-29T23:34:44.057Z,101851.00
2023-01-29T23:37:11.548Z,101849.03
2023-01-29T23:39:38.772Z,101864.25
2023-01-29T23:42:06.230Z,101853.88
2023-01-29T23:44:33.401Z,101830.13
2023-01-29T23:47:00.664Z,101827.25
2023-01-29T23:49:27.824Z,101839.72
2023-01-29T23:51:54.965Z,101845.44
2023-01-29T23:54:22.152Z,101842.53
2023-01-29T23:56:49.398Z,101858.59
2023-01-29T23:59:16.734Z,101839.72
